Date,TemperatureHighF,TemperatureAvgF,TemperatureLowF,DewpointHighF,DewpointAvgF,DewpointLowF,HumidityHigh,HumidityAvg,HumidityLow,PressureMaxIn,PressureMinIn,WindSpeedMaxMPH,WindSpeedAvgMPH,GustSpeedMaxMPH,PrecipitationSumIn
2013-1-1,51.2,47.8,43.8,50.7,44.7,34.8,98,89,64,30.17,29.95,3,0,3,1.48
2013-1-2,50.8,42.7,38.1,50.3,40.4,35.9,98,92,83,30.18,29.93,9,1,9,0.06
2013-1-3,45.2,38.4,35.1,36.3,33.5,27.8,93,83,65,30.35,30.15,9,1,9,0.00
2013-1-4,49.8,37.2,26.7,27.9,24.8,16.2,94,66,27,30.42,30.32,12,1,12,0.00
2013-1-5,48.9,41.2,25.7,38.5,29.7,24.2,95,66,42,30.43,30.30,4,0,4,0.01
2013-1-6,47.8,41.6,37.0,41.0,37.4,34.3,92,85,70,30.33,30.18,10,1,10,0.00
2013-1-7,57.4,43.0,28.9,35.0,30.7,27.1,95,65,34,30.41,30.28,11,1,11,0.00
2013-1-8,51.8,45.7,38.3,41.8,36.2,31.0,77,69,59,30.43,30.32,12,1,12,0.00
2013-1-9,63.9,56.0,49.1,54.4,48.2,40.5,82,75,69,30.44,30.35,7,1,7,0.00
2013-1-10,67.3,61.1,56.9,60.0,55.8,51.4,96,83,71,30.41,30.21,13,2,13,0.06
2013-1-11,67.2,63.5,60.5,63.8,62.1,58.8,98,95,86,30.22,30.10,18,2,18,0.26
2013-1-12,73.7,64.8,60.3,64.8,60.9,57.0,98,88,64,30.15,30.03,13,1,13,0.01
2013-1-13,71.8,65.1,59.0,62.5,60.4,56.6,95,85,70,30.11,29.99,18,2,18,0.06
2013-1-14,64.7,52.9,46.8,62.1,51.8,46.0,98,96,91,30.13,30.02,9,2,10,0.86
2013-1-15,59.9,52.7,46.8,59.1,52.3,46.0,99,98,97,30.12,29.96,2,0,2,0.84
2013-1-16,64.2,57.3,51.8,63.7,56.6,51.0,99,97,94,30.01,29.90,10,1,10,0.63
2013-1-17,52.2,45.7,35.5,51.7,44.8,33.4,99,96,92,30.27,29.72,23,2,23,0.85
2013-1-18,56.2,40.0,30.1,34.3,30.2,22.9,96,73,30,30.53,30.27,8,1,8,0.00
2013-1-19,56.4,40.2,28.4,33.4,30.2,25.2,98,72,32,30.49,30.25,8,0,8,0.00
2013-1-20,61.7,43.2,29.5,40.1,34.8,29.0,98,76,41,30.26,30.13,7,0,7,0.00
2013-1-21,55.2,42.1,31.4,40.0,29.9,18.8,98,67,40,30.20,30.10,12,1,12,0.00
2013-1-22,42.2,33.6,27.4,19.7,15.1,10.7,60,47,30,30.35,30.18,11,2,11,0.00
2013-1-23,54.4,39.3,25.3,39.8,23.6,13.1,70,54,37,30.43,30.21,9,1,9,0.00
2013-1-24,51.4,44.8,32.3,40.9,27.6,12.6,82,54,23,30.38,30.16,11,1,11,0.00
2013-1-25,37.6,33.4,29.4,32.5,19.4,10.5,93,57,40,30.42,30.18,19,2,19,0.00
2013-1-26,56.5,42.8,34.4,37.0,32.2,26.4,96,70,33,30.32,30.18,6,1,6,0.01
2013-1-27,51.1,43.1,37.1,34.9,32.6,29.6,81,67,50,30.49,30.30,13,2,13,0.00
2013-1-28,55.1,45.7,41.8,45.9,40.3,32.0,94,82,67,30.43,30.29,8,0,8,0.00
2013-1-29,72.0,57.3,41.3,62.4,52.6,39.7,96,85,64,30.30,29.96,14,1,14,0.01
2013-1-30,69.7,60.5,41.4,64.9,57.3,35.8,95,90,80,29.96,29.53,24,4,24,1.40
2013-1-31,41.3,38.1,33.3,36.1,28.4,24.6,82,68,58,30.18,29.79,15,2,15,0.00
2013-2-1,41.9,35.3,25.2,31.2,17.7,5.1,79,51,24,30.40,30.14,13,2,13,0.00
2013-2-2,50.7,35.1,21.3,39.3,23.9,10.9,97,70,25,30.40,30.16,13,1,13,0.22
2013-2-3,56.1,43.2,33.9,39.1,32.6,25.1,98,70,31,30.17,30.01,17,2,17,0.00
2013-2-4,49.7,39.3,28.5,33.3,28.8,26.0,92,68,40,30.16,30.02,4,0,4,0.00
2013-2-5,58.7,46.0,32.0,48.7,40.2,29.8,94,81,64,30.07,29.99,5,0,5,0.00
2013-2-6,67.5,51.0,39.2,47.0,38.5,29.6,98,69,28,30.20,30.05,8,0,8,0.00
2013-2-7,49.6,45.3,41.3,45.4,40.9,34.0,96,86,55,30.16,29.94,15,2,15,0.23
2013-2-8,54.2,47.1,35.7,48.4,43.4,32.0,96,87,66,30.20,29.94,12,1,12,0.04
2013-2-9,64.1,45.0,28.6,35.5,29.8,25.2,97,62,24,30.32,30.17,7,0,7,0.00
2013-2-10,59.1,49.3,42.5,50.3,39.8,29.8,97,71,51,30.34,30.06,15,2,16,1.26
2013-2-11,55.7,51.5,48.4,55.2,50.6,47.2,99,97,91,30.15,30.03,7,0,8,0.37
2013-2-12,56.2,48.1,43.2,47.2,41.9,32.4,97,81,42,30.13,29.85,12,1,12,0.17
2013-2-13,51.3,44.5,37.2,48.4,41.8,34.0,98,90,78,29.99,29.75,11,1,11,0.08
2013-2-14,57.0,43.8,35.9,36.2,33.9,30.2,93,71,39,30.10,29.98,10,1,10,0.00
2013-2-15,62.9,45.3,29.9,42.5,34.8,29.1,98,72,32,30.15,30.00,10,1,10,0.00
2013-2-16,42.4,36.7,28.4,36.4,23.4,12.5,84,61,32,30.17,29.97,18,2,18,0.00
2013-2-17,46.9,33.0,22.1,23.2,15.0,10.5,84,51,25,30.34,30.17,10,1,10,0.00
2013-2-18,59.1,41.6,23.8,29.7,25.3,21.5,95,58,29,30.40,30.15,16,2,16,0.00
2013-2-19,56.6,45.6,38.8,46.1,32.4,20.4,96,64,33,30.17,30.02,15,2,15,0.37
2013-2-20,51.4,40.2,32.0,20.4,15.4,7.5,56,38,21,30.22,30.13,12,1,12,0.00
2013-2-21,65.0,47.8,28.7,42.5,23.0,15.4,87,41,18,30.22,29.97,12,1,12,0.11
2013-2-22,46.0,41.4,40.0,42.5,39.9,38.0,97,94,87,30.17,30.05,18,2,18,1.60
2013-2-23,52.1,45.9,40.6,48.8,44.4,39.5,98,95,86,30.07,29.87,8,0,8,0.83
2013-2-24,63.9,52.1,39.0,46.5,34.5,28.9,97,55,28,30.05,29.92,8,1,9,0.00
2013-2-25,49.8,44.1,37.4,38.7,33.4,28.2,94,68,48,30.05,29.87,21,3,21,0.01
2013-2-26,47.9,41.0,36.2,45.7,38.3,34.8,97,90,74,29.88,29.58,20,3,20,1.39
2013-2-27,59.9,48.2,40.4,37.7,34.4,32.6,77,60,37,29.92,29.80,12,2,16,0.00
2013-2-28,49.6,40.7,35.8,36.8,30.5,24.9,85,67,47,30.02,29.86,12,2,12,0.00
2013-3-1,41.9,37.6,33.3,30.8,28.3,25.0,80,69,59,30.03,29.98,13,1,13,0.00
2013-3-2,38.9,35.5,32.6,31.1,28.6,24.3,90,76,59,30.06,29.97,12,2,12,0.00
2013-3-3,40.9,33.2,27.0,25.0,21.1,17.3,79,62,44,30.12,30.03,15,2,15,0.00
2013-3-4,58.4,42.4,24.6,32.0,23.5,14.6,85,52,22,30.22,30.02,10,1,10,0.00
2013-3-5,64.9,52.5,38.6,56.1,43.8,28.2,95,73,53,30.08,29.68,30,4,30,0.50
2013-3-6,38.8,34.7,30.6,31.4,25.9,20.9,89,70,61,30.22,29.89,13,3,16,0.00
2013-3-7,57.6,41.9,30.1,33.8,29.6,26.5,87,64,37,30.30,30.19,11,1,11,0.00
2013-3-8,64.3,45.2,27.8,31.9,27.4,22.3,95,56,22,30.35,30.23,8,1,8,0.00
2013-3-9,60.7,50.2,34.8,34.2,29.6,25.7,78,47,31,30.35,30.22,11,1,11,0.00
2013-3-10,65.2,55.7,48.9,46.3,36.6,32.7,65,49,30,30.23,30.05,15,1,15,0.00
2013-3-11,64.6,56.6,48.7,56.2,51.7,46.1,97,84,65,30.07,29.80,17,2,17,1.38
2013-3-12,58.3,47.1,37.3,47.6,36.2,31.4,96,69,38,30.11,29.83,13,2,13,0.01
2013-3-13,55.2,44.4,35.0,34.6,27.8,20.6,89,56,27,30.28,30.11,14,2,14,0.00
2013-3-14,54.6,40.4,27.8,25.0,19.5,12.4,71,46,20,30.41,30.25,13,1,15,0.00
2013-3-15,74.8,54.1,31.4,43.7,36.3,25.1,96,56,30,30.27,29.99,17,2,17,0.00
2013-3-16,77.6,63.9,49.2,44.9,41.7,34.6,76,48,22,30.01,29.86,20,3,20,0.00
2013-3-17,70.5,62.5,52.9,55.0,49.4,42.3,84,63,46,29.99,29.88,13,2,13,0.00
2013-3-18,60.0,52.9,44.9,56.4,50.0,43.8,97,90,77,30.02,29.79,12,1,12,0.51
2013-3-19,61.2,50.2,43.1,46.6,36.7,25.1,98,66,31,30.09,29.88,12,1,12,0.00
2013-3-20,58.4,47.8,37.8,31.7,22.0,11.7,77,38,20,30.15,29.91,15,1,15,0.00
2013-3-21,48.0,38.7,28.9,29.9,17.3,4.6,74,45,22,30.01,29.92,15,2,15,0.00
2013-3-22,50.4,42.6,34.1,35.5,27.1,18.0,68,54,43,30.10,29.99,5,0,5,0.00
2013-3-23,56.4,48.0,42.6,50.3,44.1,34.5,97,87,61,30.05,29.77,13,1,13,0.15
2013-3-24,50.2,48.2,42.3,49.0,46.0,31.8,97,92,65,29.80,29.52,16,1,16,1.07
2013-3-25,43.1,38.4,34.1,32.5,26.0,22.6,66,61,51,30.10,29.71,16,3,19,0.00
2013-3-26,41.8,35.7,31.3,27.9,25.2,22.8,81,66,49,30.31,30.07,15,2,15,0.00
2013-3-27,54.6,47.9,39.9,28.2,26.4,24.7,59,44,33,30.31,30.26,9,1,11,0.00
2013-3-28,61.5,45.4,29.5,34.1,27.9,17.8,95,56,23,30.37,30.25,6,1,11,0.00
2013-3-29,68.4,51.4,33.4,37.7,33.1,27.9,95,56,27,30.35,30.17,10,1,11,0.00
2013-3-30,73.2,59.0,48.9,55.1,42.9,33.3,96,57,37,30.19,30.01,13,1,13,0.42
2013-3-31,68.3,60.8,55.4,60.2,55.5,53.6,100,84,62,30.01,29.85,14,1,14,0.10
2013-4-1,71.5,62.6,54.0,56.5,47.7,35.8,96,63,29,30.02,29.85,14,1,14,0.00
2013-4-2,65.2,54.5,44.7,42.2,34.0,25.1,76,49,24,30.17,30.01,8,1,8,0.00
2013-4-3,61.1,50.6,41.2,45.2,34.2,27.0,90,57,33,30.19,30.08,12,1,14,0.10
2013-4-4,46.5,42.4,39.6,43.1,39.8,36.8,94,90,86,30.17,29.99,21,2,21,0.14
2013-4-5,67.5,51.5,39.7,49.5,40.4,36.6,96,70,36,30.06,29.96,10,1,11,0.00
2013-4-6,72.9,56.7,40.1,45.7,38.7,34.1,96,57,25,30.20,30.06,13,1,13,0.00
2013-4-7,75.8,62.1,47.6,51.0,45.9,37.4,85,57,34,30.20,30.04,12,2,16,0.00
2013-4-8,78.7,66.0,53.8,57.0,52.8,49.3,89,64,42,30.14,30.02,14,2,14,0.00
2013-4-9,81.7,68.2,54.2,60.7,55.6,51.2,97,67,41,30.17,30.04,11,1,11,0.00
2013-4-10,84.8,70.3,55.7,60.7,56.6,53.4,97,66,38,30.10,29.90,13,1,13,0.00
2013-4-11,79.3,71.6,63.1,68.1,63.0,54.6,96,75,60,29.91,29.60,14,2,17,1.04
2013-4-12,70.0,62.5,54.8,62.9,48.9,39.2,96,65,34,29.92,29.63,17,2,18,0.07
2013-4-13,77.0,61.8,49.1,46.3,39.9,30.1,78,48,20,30.03,29.91,10,1,10,0.00
2013-4-14,61.3,53.9,46.0,55.7,48.5,43.2,93,83,59,30.05,29.88,16,1,16,0.13
2013-4-15,76.7,63.7,55.9,60.0,56.1,51.5,94,77,55,30.12,29.92,11,1,11,0.00
2013-4-16,82.3,69.5,60.1,64.5,61.2,57.4,95,77,52,30.23,30.12,11,1,11,0.00
2013-4-17,87.2,71.8,61.7,65.5,62.5,60.1,95,75,46,30.20,30.05,14,1,14,0.00
2013-4-18,81.7,70.5,60.5,62.3,59.9,57.5,97,72,48,30.06,29.87,17,2,17,0.00
2013-4-19,72.3,56.8,46.9,65.6,52.1,41.3,95,85,65,30.03,29.74,11,1,11,0.73
2013-4-20,65.5,53.0,39.4,41.7,36.8,30.5,82,58,29,30.24,30.03,10,1,10,0.00
2013-4-21,69.3,54.6,38.4,42.0,38.8,36.0,94,60,32,30.34,30.23,15,2,15,0.00
2013-4-22,71.7,58.9,49.7,49.3,43.1,37.6,69,57,40,30.31,30.14,17,2,17,0.00
2013-4-23,76.4,60.8,49.0,50.9,43.9,37.1,85,55,35,30.23,30.05,10,1,10,0.00
2013-4-24,74.4,62.0,52.4,62.0,56.0,49.5,95,82,55,30.13,30.05,20,1,20,0.09
2013-4-25,55.3,53.1,50.6,53.4,50.9,47.8,94,92,91,30.15,30.13,4,1,4,0.00
2013-4-26,76.5,68.2,62.7,49.9,46.1,41.2,60,46,30,30.31,30.24,6,0,7,0.00
2013-4-27,70.2,62.4,56.0,57.0,52.0,43.8,89,70,49,30.33,30.12,15,2,15,0.00
2013-4-28,58.6,56.6,56.0,57.1,55.8,54.1,100,97,87,30.18,29.99,13,1,13,1.46
2013-4-29,76.9,62.8,56.3,63.2,57.1,55.3,98,84,49,30.05,29.91,4,0,4,0.01
2013-4-30,81.8,65.9,55.3,65.3,58.8,54.5,100,81,42,30.08,29.94,8,0,8,0.00
2013-5-1,69.4,64.1,60.8,60.5,57.4,54.3,93,79,63,30.18,30.07,18,3,18,0.00
2013-5-2,66.8,61.2,58.2,60.1,56.7,53.4,91,85,78,30.18,30.10,15,2,15,0.00
2013-5-3,63.0,60.2,58.6,57.4,56.0,53.1,90,86,78,30.12,29.95,17,2,17,0.00
2013-5-4,59.9,55.1,49.9,56.3,53.1,48.4,98,93,88,29.96,29.84,18,1,18,1.47
2013-5-5,70.5,56.1,48.0,57.2,51.9,47.1,98,88,48,29.85,29.73,14,1,14,0.60
2013-5-6,58.6,50.5,45.8,51.7,48.2,44.5,98,92,68,29.90,29.80,6,0,6,0.21
2013-5-7,71.7,58.5,50.5,56.6,51.9,49.7,98,81,50,29.98,29.86,6,0,6,0.00
2013-5-8,77.5,64.3,52.0,59.6,55.4,49.0,98,75,50,30.05,29.95,9,1,9,0.00
2013-5-9,85.6,69.4,55.5,63.0,57.7,53.9,98,70,35,30.10,30.01,6,0,6,0.00
2013-5-10,78.1,67.4,56.1,63.8,58.8,54.5,98,76,52,30.07,29.93,15,1,15,0.00
2013-5-11,76.2,67.5,61.3,68.7,62.1,56.3,96,83,68,29.98,29.86,7,0,7,0.09
2013-5-12,70.7,61.6,51.2,60.2,47.6,34.7,98,65,29,30.10,29.92,10,1,10,0.01
2013-5-13,71.0,56.6,40.8,45.3,38.5,33.1,97,55,26,30.24,30.09,9,1,9,0.00
2013-5-14,82.7,63.4,43.6,56.6,48.6,41.1,98,63,35,30.25,30.09,6,0,6,0.00
2013-5-15,88.5,71.8,56.3,60.4,56.5,52.7,91,63,30,30.15,29.98,9,0,9,0.00
2013-5-16,87.0,69.8,58.7,66.1,59.6,56.3,95,73,42,30.08,29.96,8,0,8,0.00
2013-5-17,84.5,70.2,57.3,66.4,59.8,52.2,95,73,39,30.08,29.99,6,0,6,0.07
2013-5-18,76.0,68.5,62.9,67.7,64.9,60.3,97,89,73,30.07,30.01,6,1,6,0.21
2013-5-19,69.3,66.8,64.0,68.5,65.5,62.0,100,96,92,30.08,29.96,4,1,4,0.29
2013-5-20,89.1,73.7,64.0,73.2,66.9,62.5,99,81,54,30.10,29.96,4,1,4,0.00
2013-5-21,93.1,77.2,66.1,72.9,68.4,64.8,99,77,45,30.02,29.86,7,0,7,0.00
2013-5-22,88.8,76.6,66.6,71.4,65.7,62.3,95,71,44,29.95,29.82,9,1,9,0.00
2013-5-23,85.3,75.1,68.3,67.4,62.4,56.2,92,67,43,29.95,29.87,9,1,9,0.00
2013-5-24,76.5,67.6,57.6,57.5,52.7,45.5,81,60,40,30.20,29.95,14,1,14,0.00
2013-5-25,83.7,64.8,47.4,52.5,47.0,41.2,96,58,24,30.31,30.17,5,0,5,0.00
2013-5-26,87.7,68.6,51.8,59.0,51.5,44.2,97,61,24,30.25,30.13,6,0,6,0.00
2013-5-27,91.3,72.4,56.3,64.0,57.9,53.2,96,65,34,30.21,30.07,6,0,6,0.00
2013-5-28,88.5,76.2,67.4,65.5,60.2,52.9,81,61,33,30.17,30.07,9,1,9,0.00
2013-5-29,85.2,74.4,63.7,66.2,63.3,57.1,92,70,48,30.19,30.09,11,0,11,0.00
2013-5-30,85.8,75.5,67.3,69.2,65.4,61.9,89,72,51,30.21,30.08,11,1,11,0.00
2013-5-31,88.0,76.8,69.1,68.6,65.2,62.1,86,69,44,30.17,30.03,10,0,10,0.00
2013-6-1,87.8,77.4,70.1,70.3,66.9,63.5,88,71,52,30.07,29.95,10,1,10,0.00
2013-6-2,88.0,74.7,67.2,73.6,68.8,66.2,97,83,57,29.97,29.83,8,0,8,0.91
2013-6-3,85.7,73.8,66.0,74.2,67.7,64.9,98,83,55,29.94,29.84,6,0,6,0.00
2013-6-4,90.3,76.6,64.2,70.8,66.7,62.9,100,75,45,29.98,29.91,4,0,4,0.00
2013-6-5,87.1,74.3,68.6,73.6,69.7,67.4,97,86,62,30.00,29.84,10,1,10,1.04
2013-6-6,83.0,72.0,0.0,73.0,68.0,0.0,98,86,67,29.89,29.72,8,0,8,0.00
2013-6-7,85.7,71.8,66.6,72.4,67.9,65.2,98,89,59,29.83,29.67,10,0,10,0.60
2013-6-8,85.5,73.3,65.4,71.8,67.5,64.6,99,84,56,30.05,29.83,5,0,5,0.00
2013-6-9,84.0,72.7,68.0,73.5,69.8,66.4,98,91,66,30.07,29.97,8,0,8,0.87
2013-6-10,80.3,72.3,64.8,73.3,69.8,62.6,100,92,74,30.03,29.91,7,0,7,0.36
2013-6-11,90.3,79.1,70.5,76.2,72.4,69.1,97,82,58,30.02,29.92,10,1,10,0.00
2013-6-12,94.3,82.0,71.4,78.5,74.2,69.9,99,79,54,30.02,29.92,8,0,8,0.00
2013-6-13,91.8,81.6,73.1,75.4,73.0,69.0,96,77,52,29.93,29.70,13,1,13,0.79
2013-6-14,74.8,74.4,73.9,65.5,64.7,63.4,75,72,70,29.93,29.92,0,0,1,0.00
2013-6-15,89.2,79.4,65.6,66.3,63.0,58.9,93,59,39,30.10,30.02,9,0,9,0.00
2013-6-16,90.8,75.5,61.7,72.5,66.8,60.3,98,76,47,30.12,29.98,3,0,6,0.79
2013-6-17,88.7,73.0,66.6,77.0,69.9,65.6,100,91,61,30.07,29.91,8,0,8,0.58
2013-6-18,84.2,72.8,68.5,75.8,70.8,67.6,100,94,72,29.95,29.82,11,0,11,1.51
2013-6-19,82.5,73.7,67.9,72.8,69.2,67.1,99,87,66,30.06,29.88,7,0,7,0.00
2013-6-20,86.2,74.9,66.5,70.9,67.2,65.0,99,79,54,30.16,30.05,7,1,13,0.00
2013-6-21,87.0,75.1,64.4,69.9,66.1,63.1,100,76,49,30.21,30.11,9,0,9,0.00
2013-6-22,89.8,75.1,63.7,69.0,64.9,60.6,99,73,43,30.19,30.05,8,0,8,0.00
2013-6-23,89.5,75.3,66.3,73.3,68.7,64.5,98,81,55,30.18,30.06,9,0,9,0.00
2013-6-24,83.9,73.9,68.3,76.6,71.0,67.3,100,91,69,30.20,30.08,5,0,5,0.21
2013-6-25,88.9,76.3,68.1,77.5,71.1,67.0,100,85,61,30.14,30.00,6,0,6,0.02
2013-6-26,91.3,78.8,68.9,77.5,72.5,67.5,99,83,54,30.06,29.90,6,0,6,0.06
2013-6-27,87.8,79.5,73.1,77.5,73.4,69.9,97,82,65,29.95,29.77,8,0,8,0.05
2013-6-28,93.0,78.2,70.9,79.4,72.7,69.8,99,85,53,29.83,29.67,5,0,5,0.00
2013-6-29,91.3,81.6,69.7,74.2,68.7,63.3,94,67,45,29.68,29.61,5,0,5,0.00
2013-6-30,90.2,77.1,67.8,72.1,68.1,64.1,99,76,45,29.76,29.66,2,0,3,0.00
2013-7-1,81.8,75.3,69.6,72.6,70.6,65.4,97,86,67,29.89,29.75,7,0,7,0.88
2013-7-2,89.0,76.6,68.7,72.8,69.9,67.4,100,81,55,30.04,29.88,7,0,7,0.00
2013-7-3,73.2,70.4,67.3,72.3,68.8,66.5,98,95,85,30.15,30.02,7,0,7,2.11
2013-7-4,74.5,70.5,68.7,73.0,69.5,67.8,98,97,94,30.16,30.05,7,0,7,0.59
2013-7-5,84.5,72.2,69.1,74.7,70.2,68.2,98,94,69,30.18,30.09,16,0,16,0.72
2013-7-6,83.0,73.8,68.6,78.1,71.6,68.0,99,93,76,30.14,30.05,6,0,6,0.71
2013-7-7,79.8,73.9,70.5,75.4,72.2,70.2,99,94,82,30.15,30.08,4,0,4,0.12
2013-7-8,92.5,79.5,71.8,76.5,72.9,70.4,99,82,52,30.17,30.05,6,0,6,0.00
2013-7-9,92.8,79.4,70.6,77.8,73.7,69.7,97,84,56,30.15,30.01,4,0,4,0.00
2013-7-10,76.0,74.9,74.3,73.9,73.5,73.2,97,95,93,30.07,30.03,1,0,1,0.00
2013-7-12,73.4,73.4,73.4,72.5,72.5,72.5,97,97,97,29.96,29.93,0,0,0,0.00
2013-7-13,78.8,73.4,70.2,72.5,70.8,68.1,97,92,78,30.04,29.95,12,1,12,0.03
2013-7-14,84.3,74.8,70.3,75.2,71.8,69.1,97,91,73,30.18,30.02,14,1,14,0.28
2013-7-15,85.5,75.7,69.9,74.8,71.5,69.0,97,87,66,30.26,30.15,14,1,14,0.07
2013-7-16,90.9,77.9,69.0,75.3,70.5,67.6,97,80,52,30.29,30.20,9,0,9,0.00
2013-7-17,95.8,77.3,67.6,79.6,70.9,66.4,99,83,52,30.25,30.09,16,0,16,0.51
2013-7-18,93.0,78.9,67.8,77.1,71.5,66.2,100,80,52,30.19,30.01,9,0,9,0.03
2013-7-19,95.3,80.6,71.6,77.0,73.2,70.4,99,80,50,30.09,29.94,4,0,4,0.00
2013-7-20,91.3,75.7,70.3,76.9,71.5,68.3,98,88,56,30.00,29.91,7,0,7,0.55
2013-7-21,91.3,75.9,70.2,76.9,72.1,69.5,99,90,56,30.02,29.89,7,0,7,0.20
2013-7-22,87.5,76.1,70.5,78.4,72.5,69.3,99,89,69,30.00,29.84,7,0,7,0.05
2013-7-23,83.6,75.7,71.4,74.2,71.0,68.8,96,86,67,29.95,29.81,5,0,5,0.00
2013-7-24,86.7,76.4,70.1,76.2,71.8,68.0,97,86,70,29.87,29.77,9,0,9,0.00
2013-7-25,94.3,78.5,69.4,75.0,70.1,68.0,99,78,47,29.96,29.81,5,0,5,0.00
2013-7-26,90.0,75.8,66.7,76.2,70.7,65.5,98,85,60,30.03,29.93,8,0,8,0.00
2013-7-27,72.4,71.9,71.0,69.9,69.6,68.8,93,92,92,29.97,29.96,1,0,1,0.00
2013-7-30,75.5,75.0,74.6,68.9,68.3,67.7,81,80,79,30.11,30.10,0,0,0,0.00
2013-7-31,80.4,73.6,70.6,74.7,70.6,67.7,98,91,81,30.11,29.94,6,0,6,0.45
2013-8-1,88.7,75.9,70.2,76.7,72.6,69.1,99,90,63,29.98,29.88,5,0,5,0.13
2013-8-2,91.9,77.1,67.0,75.1,69.3,65.8,99,80,48,30.00,29.90,4,0,4,0.00
2013-8-3,88.4,77.4,67.0,75.1,70.8,65.6,99,82,57,30.03,29.96,8,0,8,0.00
2013-8-4,90.0,79.1,71.3,76.1,72.1,67.4,96,81,54,30.00,29.92,8,0,8,0.00
2013-8-5,90.6,76.6,66.5,75.6,69.4,64.5,95,80,55,30.02,29.93,7,0,7,0.00
2013-8-6,92.5,78.8,70.1,75.9,71.4,68.0,97,80,55,29.98,29.91,5,0,5,0.19
2013-8-7,82.6,74.6,72.3,77.1,73.3,71.5,99,96,83,30.02,29.94,6,0,6,0.02
2013-8-8,83.5,76.1,72.8,77.1,74.3,71.9,99,94,80,30.03,29.97,5,0,5,0.59
2013-8-9,93.0,78.8,0.0,77.4,70.9,0.0,100,72,55,30.06,29.97,2,0,5,0.00
2013-8-10,92.9,79.3,72.8,80.8,74.3,71.1,99,86,55,30.09,30.02,10,0,10,0.08
2013-8-11,92.8,80.0,71.2,77.2,73.6,70.2,99,83,56,30.13,30.02,5,0,5,0.00
2013-8-12,91.0,76.5,71.1,79.7,73.3,70.4,100,91,63,30.08,29.96,4,0,4,0.28
2013-8-13,87.8,76.7,70.3,76.8,72.8,69.9,100,89,65,30.00,29.85,4,0,5,0.00
2013-8-14,83.7,75.3,69.9,74.9,71.8,66.1,100,89,70,29.99,29.85,5,0,5,0.00
2013-8-15,74.7,69.7,67.3,66.7,63.0,59.4,90,80,60,30.06,29.97,15,1,15,0.00
2013-8-16,67.7,65.9,62.2,63.7,61.9,57.7,96,87,81,30.10,30.01,13,1,14,0.00
2013-8-17,65.4,64.3,63.2,64.4,61.6,58.2,98,91,84,30.14,30.07,11,1,11,0.19
2013-8-18,76.2,68.9,64.1,71.5,67.2,63.2,99,95,83,30.18,30.09,6,0,6,0.06
2013-8-19,82.3,72.5,68.5,74.8,70.3,67.9,99,93,75,30.13,30.02,8,0,8,2.43
2013-8-20,81.5,74.2,70.3,74.8,71.4,68.4,98,91,78,30.15,30.06,8,0,8,0.00
2013-8-21,85.0,75.0,70.1,75.8,71.5,67.9,98,89,73,30.21,30.08,9,0,9,0.00
2013-8-22,93.2,77.7,70.3,76.7,72.4,69.2,99,86,51,30.15,30.01,8,0,8,0.46
2013-8-23,91.2,77.6,69.0,76.0,72.0,68.3,100,85,55,30.06,29.94,8,0,8,0.00
2013-8-24,84.5,74.8,68.8,73.0,69.3,66.3,100,84,61,30.23,29.99,12,1,15,0.07
2013-8-25,83.3,72.9,63.2,67.3,64.1,60.5,95,75,55,30.34,30.21,12,1,12,0.00
2013-8-26,86.8,72.9,59.7,67.9,62.4,59.0,99,73,48,30.29,30.17,9,1,9,0.00
2013-8-27,88.3,73.9,61.2,72.4,67.1,60.5,100,81,52,30.15,30.01,4,0,4,0.00
2013-8-28,92.0,76.8,66.1,75.6,70.3,65.0,100,83,51,30.04,29.94,4,0,4,0.00
2013-8-29,92.8,79.8,70.7,77.0,73.0,69.0,99,81,57,29.98,29.89,6,0,6,0.00
2013-8-30,89.8,77.8,73.0,78.1,74.2,70.7,97,89,66,29.99,29.89,7,0,7,0.00
2013-8-31,94.2,79.4,71.1,78.6,73.3,69.3,99,83,54,29.94,29.83,3,0,5,0.00
2013-9-1,86.3,74.7,70.2,77.4,72.4,69.4,100,93,74,29.91,29.82,5,0,5,0.00
2013-9-2,82.3,73.7,70.1,75.2,72.1,69.5,100,95,74,29.96,29.85,3,0,3,0.04
2013-9-3,90.8,76.9,69.0,75.9,71.3,68.2,99,85,52,29.95,29.85,6,0,6,0.00
2013-9-4,91.2,76.3,66.7,73.8,68.0,63.9,99,79,45,30.07,29.94,5,0,5,0.00
2013-9-5,93.3,76.3,66.9,73.7,68.6,65.4,99,80,45,30.10,30.02,4,0,4,0.00
2013-9-6,89.6,74.3,65.9,71.2,67.6,65.0,100,82,52,30.12,30.02,11,0,12,0.00
2013-9-7,89.8,74.1,64.4,70.7,66.4,62.6,99,80,46,30.10,29.97,5,0,5,0.00
2013-9-8,90.7,75.9,64.5,73.0,68.3,63.7,99,80,46,30.00,29.91,6,0,6,0.00
2013-9-9,91.2,77.1,67.7,73.5,69.4,66.7,100,80,49,30.08,29.96,9,0,9,0.00
2013-9-10,90.8,77.2,67.2,74.0,70.1,65.9,99,80,52,30.19,30.08,8,0,8,0.00
2013-9-11,92.5,76.9,67.1,74.3,68.0,63.2,99,78,41,30.20,30.06,7,0,7,0.00
2013-9-12,91.8,76.9,66.0,72.2,68.7,64.9,100,78,48,30.08,29.88,6,0,6,0.00
2013-9-13,88.2,74.8,61.2,69.6,64.5,55.4,93,72,43,29.90,29.78,11,0,11,0.00
2013-9-14,83.7,66.5,54.1,61.6,57.0,52.4,99,74,44,30.06,29.87,13,1,13,0.00
2013-9-15,84.2,70.9,62.9,71.3,65.3,58.7,96,83,61,30.15,30.05,8,0,8,0.00
2013-9-16,81.0,70.8,65.7,67.2,62.2,58.3,97,76,46,30.10,30.03,3,0,3,0.00
2013-9-17,78.5,70.0,62.8,65.1,62.8,60.6,95,78,60,30.21,30.07,16,1,16,0.00
2013-9-18,77.2,68.8,64.1,65.5,61.4,58.1,93,78,61,30.22,30.11,9,0,9,0.00
2013-9-19,86.8,70.9,60.6,66.6,62.7,58.6,98,78,46,30.17,30.05,5,0,5,0.00
2013-9-20,89.7,73.5,61.4,68.2,64.6,60.4,99,76,45,30.06,29.88,6,0,6,0.00
2013-9-21,74.2,67.3,63.9,69.8,65.4,62.6,98,94,76,29.91,29.69,7,0,7,0.95
2013-9-22,84.0,68.5,59.4,66.5,62.4,57.9,99,83,47,29.86,29.75,6,0,6,0.00
2013-9-23,80.9,67.5,57.0,64.3,60.4,56.5,100,80,51,30.00,29.85,12,1,12,0.00
2013-9-24,70.7,66.6,64.1,64.4,61.8,58.5,96,85,76,30.01,29.87,11,1,11,0.00
2013-9-25,65.4,64.0,62.3,64.4,62.2,61.0,99,94,89,29.89,29.82,11,0,11,0.54
2013-9-26,80.7,68.2,60.0,67.5,63.6,59.2,99,86,60,29.99,29.87,3,0,5,0.00
2013-9-27,79.3,68.1,58.4,64.8,60.5,56.0,96,79,51,30.12,29.99,9,0,9,0.00
2013-9-28,76.5,64.1,57.5,60.1,57.4,55.0,98,81,53,30.21,30.10,11,0,11,0.00
2013-9-29,74.3,62.2,53.8,60.2,55.9,52.3,96,82,55,30.15,30.02,7,0,7,0.00
2013-9-30,78.5,64.0,55.9,61.1,58.1,55.0,100,83,51,30.09,29.98,7,0,7,0.00
2013-10-1,86.1,66.6,55.2,66.4,60.5,54.5,99,83,47,30.15,30.03,5,0,5,0.00
2013-10-2,85.0,68.5,57.4,67.6,62.3,56.9,100,83,49,30.15,30.04,5,0,5,0.00
2013-10-3,85.7,70.7,62.1,68.1,63.6,61.0,100,81,46,30.12,30.03,6,0,6,0.00
2013-10-4,88.0,69.5,58.7,69.4,63.4,57.8,99,83,47,30.14,30.06,5,0,5,0.00
2013-10-5,88.0,71.3,61.1,68.7,64.4,60.5,100,82,48,30.11,29.98,8,0,8,0.00
2013-10-6,84.2,69.4,61.6,68.9,64.5,60.4,99,86,54,30.01,29.83,9,0,9,1.70
2013-10-7,73.4,63.9,53.3,64.8,59.9,51.3,100,88,62,29.95,29.80,7,0,7,0.02
2013-10-8,74.8,63.0,52.8,60.7,55.8,51.7,97,79,58,30.14,29.95,15,1,15,0.00
2013-10-9,78.2,62.9,55.6,60.2,52.8,45.5,96,72,44,30.19,30.09,14,1,14,0.00
2013-10-10,79.2,63.3,53.2,61.5,57.0,52.0,100,83,50,30.14,30.00,7,0,7,0.00
2013-10-11,69.6,57.8,52.1,60.1,55.1,51.7,100,92,68,30.05,29.99,3,0,3,0.00
2013-10-12,81.2,70.2,55.5,63.6,60.2,55.2,99,73,51,30.09,30.01,6,0,6,0.00
2013-10-13,81.3,66.0,55.8,66.2,60.3,55.0,100,84,49,30.18,30.07,4,0,4,0.00
2013-10-14,74.3,67.1,62.4,64.1,62.0,60.6,98,84,68,30.19,30.09,10,1,10,0.00
2013-10-15,67.6,63.8,61.8,61.1,59.9,58.8,94,87,76,30.15,30.04,9,0,9,0.00
2013-10-16,76.4,67.0,57.2,65.4,61.3,52.9,99,83,61,30.06,29.94,4,0,4,0.00
2013-10-17,68.2,65.8,64.1,67.6,65.1,61.8,100,98,94,29.95,29.87,4,0,4,0.41
2013-10-18,72.3,63.4,52.1,66.5,59.3,51.8,100,88,54,30.02,29.92,4,0,4,0.00
2013-10-19,63.4,57.1,52.6,58.3,55.0,51.9,100,93,80,29.98,29.92,4,0,4,0.01
2013-10-20,71.7,54.9,43.3,52.6,47.2,38.7,100,80,33,30.07,29.98,4,0,4,0.00
2013-10-21,71.8,54.8,41.9,58.5,50.3,40.7,99,87,54,30.14,30.01,7,0,7,0.00
2013-10-22,72.4,60.1,52.8,59.4,54.7,48.0,99,84,44,30.04,29.84,3,0,3,0.00
2013-10-23,60.2,51.0,40.6,51.3,44.9,36.2,98,82,47,30.10,29.83,11,1,11,0.00
2013-10-24,64.5,47.3,35.8,45.6,39.5,35.0,98,78,36,30.23,30.08,4,0,4,0.00
2013-10-25,57.2,44.2,33.7,43.1,33.3,25.0,94,68,33,30.40,30.22,6,0,6,0.00
2013-10-26,61.4,43.7,30.9,43.0,35.7,29.9,97,77,38,30.37,30.18,5,0,5,0.00
2013-10-27,68.0,52.5,38.4,56.4,47.7,37.5,98,85,60,30.20,30.11,5,0,5,0.00
2013-10-28,59.1,54.2,52.8,58.6,53.7,51.7,99,98,96,30.26,30.13,3,0,3,0.10
2013-10-31,71.6,70.5,69.8,62.6,61.9,61.5,77,74,71,29.90,29.85,12,2,12,0.00
2013-11-1,76.8,66.6,56.2,65.8,58.4,46.7,98,77,40,29.85,29.69,17,1,17,0.41
2013-11-2,69.6,55.1,45.1,53.3,45.2,39.7,98,72,36,30.07,29.80,6,0,10,0.04
2013-11-3,66.0,49.3,39.2,45.1,40.3,35.0,98,75,34,30.32,30.06,6,0,6,0.00
2013-11-4,62.4,50.2,40.5,43.7,39.6,36.8,97,70,41,30.45,30.32,14,1,14,0.00
2013-11-5,64.1,53.0,42.7,46.6,38.8,34.2,83,60,39,30.48,30.34,14,2,14,0.00
2013-11-6,72.8,59.7,50.1,59.7,54.0,46.5,95,82,61,30.35,30.11,13,1,13,0.00
2013-11-7,61.4,54.8,41.9,60.0,49.1,34.1,98,82,59,30.23,30.03,12,1,12,0.12
2013-11-8,62.8,46.0,34.1,35.2,31.9,25.2,92,63,25,30.36,30.22,5,0,5,0.00
2013-11-9,60.0,46.1,34.0,44.2,37.4,32.7,97,75,37,30.38,30.23,3,0,6,0.00
2013-11-10,70.3,54.0,43.0,45.0,42.1,38.6,96,68,39,30.30,30.19,7,0,7,0.00
2013-11-11,68.0,48.7,35.2,40.0,36.5,31.3,97,69,28,30.33,30.19,13,0,13,0.00
2013-11-12,60.3,42.9,30.4,44.9,33.5,18.3,98,72,45,30.47,30.16,8,2,12,0.00
2013-11-13,51.9,34.9,22.5,25.5,18.9,11.8,87,57,23,30.61,30.47,4,0,6,0.00
2013-11-14,60.2,38.0,23.2,30.9,23.4,17.7,97,64,19,30.53,30.34,6,0,7,0.00
2013-11-15,49.5,44.9,32.6,47.1,39.5,28.2,98,82,49,30.36,30.17,4,0,8,0.11
2013-11-16,61.8,54.8,47.8,57.0,53.0,47.3,98,94,84,30.25,30.14,6,0,9,0.00
2013-11-17,67.8,61.6,57.3,67.2,60.4,55.3,99,96,92,30.17,29.91,6,1,9,0.07
2013-11-18,68.9,61.6,48.7,68.0,48.5,33.2,98,66,32,30.04,29.88,6,1,11,0.05
2013-11-19,60.1,49.2,37.4,38.5,33.7,28.4,79,56,38,30.18,30.03,4,0,7,0.00
2013-11-20,56.1,48.1,40.3,35.7,32.3,28.0,68,55,44,30.35,30.18,19,2,19,0.00
2013-11-21,49.7,48.7,47.2,38.9,36.8,34.9,72,63,57,30.36,30.33,14,2,14,0.00
2013-11-22,63.6,59.4,52.0,58.2,56.3,50.9,97,90,81,30.34,30.18,4,0,4,0.07
2013-11-23,58.7,51.0,37.8,58.1,46.1,28.9,98,84,66,30.26,30.13,10,1,10,0.00
2013-11-24,46.9,35.4,28.2,28.9,19.6,12.9,77,55,27,30.50,30.26,8,1,8,0.00
2013-11-25,42.9,36.0,29.2,31.0,17.7,10.6,85,49,32,30.52,30.25,13,2,13,0.01
2013-11-26,48.6,39.7,33.0,48.1,38.6,29.2,98,96,78,30.25,29.67,16,1,16,1.45
2013-11-27,42.7,33.6,25.8,41.9,27.4,18.5,97,79,56,30.30,29.68,23,3,23,0.20
2013-11-28,50.4,31.8,19.6,26.8,21.8,17.2,94,70,33,30.52,30.30,5,0,5,0.00
2013-11-29,61.4,39.7,23.4,33.6,26.1,14.1,98,67,20,30.56,30.46,6,0,6,0.00
2013-11-30,52.4,42.5,35.1,30.9,27.7,25.9,71,57,37,30.58,30.36,16,2,16,0.00
2013-12-1,57.2,45.9,39.2,41.2,34.6,27.1,89,65,52,30.37,30.04,5,0,5,0.00
2013-12-2,51.3,47.2,42.4,50.8,45.8,39.2,98,95,88,30.04,29.84,4,0,4,0.34
2013-12-3,55.4,53.0,50.6,54.7,52.4,50.1,99,98,95,29.91,29.84,5,0,5,0.26
2013-12-4,70.9,60.7,54.2,64.1,58.8,53.9,99,94,76,30.03,29.90,8,0,8,0.01
2013-12-5,71.2,67.0,63.8,68.2,66.0,62.9,99,97,88,30.07,29.96,11,1,11,0.77
2013-12-6,74.5,68.4,54.0,67.5,65.3,52.8,97,90,78,30.05,29.93,22,3,22,0.32
2013-12-7,53.9,43.5,39.6,52.8,41.6,38.6,98,93,85,30.32,30.04,8,1,10,0.02
2013-12-8,49.1,43.9,39.4,48.6,43.1,38.9,99,97,95,30.32,30.20,16,2,16,0.25
2013-12-9,48.4,43.7,39.2,48.1,43.3,38.7,99,98,98,30.21,30.03,14,0,14,1.49
2013-12-10,49.1,42.5,29.3,48.8,38.6,27.1,99,87,60,30.36,29.97,15,1,15,0.20
2013-12-11,54.4,38.0,25.4,32.8,28.2,24.7,98,73,34,30.48,30.34,6,0,6,0.00
2013-12-12,42.7,33.3,27.9,30.1,24.3,18.6,85,70,47,30.49,30.38,10,1,10,0.00
2013-12-13,57.2,40.1,23.9,30.9,22.9,15.7,93,56,21,30.43,30.18,6,0,6,0.00
2013-12-14,49.0,46.6,43.6,48.6,42.5,29.3,99,87,52,30.20,29.83,13,1,13,0.74
2013-12-15,49.9,40.8,36.6,49.6,37.4,30.5,99,88,78,30.15,29.85,13,2,13,0.01
2013-12-16,53.9,38.0,27.8,33.9,30.1,26.6,96,76,39,30.30,30.21,10,1,10,0.00
2013-12-17,62.6,44.9,28.8,38.4,33.9,28.1,99,70,36,30.26,30.10,16,2,16,0.00
2013-12-18,53.4,41.4,30.7,31.3,23.5,16.5,85,52,26,30.35,30.20,11,1,12,0.00
2013-12-19,64.0,43.2,26.9,35.9,27.5,22.7,96,61,21,30.36,30.21,7,0,7,0.00
2013-12-20,61.3,48.6,34.9,51.6,42.2,31.0,90,79,65,30.25,30.13,7,0,7,0.00
2013-12-21,69.8,61.1,51.4,65.5,58.5,49.1,98,91,85,30.13,29.92,20,1,20,0.01
2013-12-22,70.3,61.1,56.1,65.5,59.5,55.5,99,95,85,30.06,29.87,18,2,18,3.26
2013-12-23,56.7,47.2,34.3,56.4,44.6,30.4,99,91,83,30.27,30.02,12,1,12,0.00
2013-12-24,39.2,32.5,25.3,30.6,24.9,20.2,89,74,51,30.44,30.26,14,1,14,0.00
2013-12-25,44.5,33.0,23.8,26.3,21.3,16.8,92,64,41,30.53,30.37,13,1,13,0.00
2013-12-26,54.9,40.9,28.0,29.9,27.4,24.3,90,61,36,30.42,30.30,7,0,7,0.00
2013-12-27,50.2,33.2,26.1,32.6,26.9,24.8,97,81,41,30.49,30.35,8,0,8,0.00
2013-12-30,40.8,40.2,39.5,37.8,37.2,36.2,90,89,88,30.24,30.22,5,0,5,0.00
2013-12-31,45.3,38.5,31.6,36.3,30.6,22.1,92,75,42,30.41,30.22,10,1,10,0.00
2014-1-1,48.5,39.8,30.2,38.6,32.6,28.9,96,77,55,30.40,30.15,6,0,6,0.00
2014-1-2,50.0,40.9,24.4,49.2,37.6,15.9,98,88,70,30.16,29.78,20,2,20,0.21